sensor_id;sensor_type;location;lat;lon;timestamp;P1;durP1;ratioP1;P2;durP2;ratioP2
10985;SDS011;5546;48.714;8.738;2023-06-14T00:00:42;4.93;;;3.93;;
10985;SDS011;5546;48.714;8.738;2023-06-14T00:03:09;4.80;;;4.20;;
10985;SDS011;5546;48.714;8.738;2023-06-14T00:05:36;7.97;;;3.70;;
10985;SDS011;5546;48.714;8.738;2023-06-14T00:08:05;4.37;;;3.70;;
10985;SDS011;5546;48.714;8.738;2023-06-14T00:10:37;4.27;;;3.77;;
10985;SDS011;5546;48.714;8.738;2023-06-14T00:13:06;6.70;;;4.10;;
10985;SDS011;5546;48.714;8.738;2023-06-14T00:15:32;6.47;;;4.00;;
10985;SDS011;5546;48.714;8.738;2023-06-14T00:17:58;4.47;;;4.07;;
10985;SDS011;5546;48.714;8.738;2023-06-14T00:20:28;7.03;;;4.10;;
10985;SDS011;5546;48.714;8.738;2023-06-14T00:22:55;5.03;;;4.00;;
10985;SDS011;5546;48.714;8.738;2023-06-14T00:25:22;3.97;;;3.57;;
10985;SDS011;5546;48.714;8.738;2023-06-14T00:27:50;4.20;;;3.80;;
10985;SDS011;5546;48.714;8.738;2023-06-14T00:30:16;4.07;;;3.50;;
10985;SDS011;5546;48.714;8.738;2023-06-14T00:32:41;4.70;;;3.93;;
10985;SDS011;5546;48.714;8.738;2023-06-14T00:35:08;7.03;;;4.20;;
10985;SDS011;5546;48.714;8.738;2023-06-14T00:37:34;6.53;;;3.93;;
10985;SDS011;5546;48.714;8.738;2023-06-14T00:40:00;5.17;;;3.50;;
10985;SDS011;5546;48.714;8.738;2023-06-14T00:42:26;6.70;;;4.30;;
10985;SDS011;5546;48.714;8.738;2023-06-14T00:44:53;5.60;;;4.10;;
10985;SDS011;5546;48.714;8.738;2023-06-14T00:47:19;4.23;;;3.83;;
10985;SDS011;5546;48.714;8.738;2023-06-14T00:49:45;6.40;;;3.90;;
10985;SDS011;5546;48.714;8.738;2023-06-14T00:52:11;5.83;;;3.67;;
10985;SDS011;5546;48.714;8.738;2023-06-14T00:54:39;7.93;;;4.50;;
10985;SDS011;5546;48.714;8.738;2023-06-14T00:57:06;5.00;;;4.17;;
10985;SDS011;5546;48.714;8.738;2023-06-14T00:59:32;5.97;;;4.13;;
10985;SDS011;5546;48.714;8.738;2023-06-14T01:01:58;5.37;;;4.07;;
10985;SDS011;5546;48.714;8.738;2023-06-14T01:04:24;4.77;;;4.00;;
10985;SDS011;5546;48.714;8.738;2023-06-14T01:06:57;7.37;;;4.40;;
10985;SDS011;5546;48.714;8.738;2023-06-14T01:09:41;5.80;;;4.20;;
10985;SDS011;5546;48.714;8.738;2023-06-14T01:12:39;4.07;;;3.63;;
10985;SDS011;5546;48.714;8.738;2023-06-14T01:15:16;6.77;;;3.93;;
10985;SDS011;5546;48.714;8.738;2023-06-14T01:17:42;6.90;;;3.87;;
10985;SDS011;5546;48.714;8.738;2023-06-14T01:20:10;6.17;;;3.67;;
10985;SDS011;5546;48.714;8.738;2023-06-14T01:22:50;6.10;;;4.00;;
10985;SDS011;5546;48.714;8.738;2023-06-14T01:25:16;4.53;;;4.03;;
10985;SDS011;5546;48.714;8.738;2023-06-14T01:27:45;5.67;;;4.10;;
10985;SDS011;5546;48.714;8.738;2023-06-14T01:30:15;6.00;;;4.00;;
10985;SDS011;5546;48.714;8.738;2023-06-14T01:32:42;4.60;;;3.40;;
10985;SDS011;5546;48.714;8.738;2023-06-14T01:35:09;4.67;;;3.90;;
10985;SDS011;5546;48.714;8.738;2023-06-14T01:37:35;4.60;;;4.10;;
10985;SDS011;5546;48.714;8.738;2023-06-14T01:40:02;7.23;;;4.40;;
10985;SDS011;5546;48.714;8.738;2023-06-14T01:42:29;7.10;;;4.13;;
10985;SDS011;5546;48.714;8.738;2023-06-14T01:44:55;5.40;;;3.83;;
10985;SDS011;5546;48.714;8.738;2023-06-14T01:47:21;6.77;;;4.50;;
10985;SDS011;5546;48.714;8.738;2023-06-14T01:49:47;8.30;;;4.30;;
10985;SDS011;5546;48.714;8.738;2023-06-14T01:52:13;7.13;;;4.50;;
10985;SDS011;5546;48.714;8.738;2023-06-14T01:54:38;4.77;;;4.17;;
10985;SDS011;5546;48.714;8.738;2023-06-14T01:57:06;4.50;;;4.07;;
10985;SDS011;5546;48.714;8.738;2023-06-14T01:59:33;5.10;;;4.60;;
10985;SDS011;5546;48.714;8.738;2023-06-14T02:01:59;5.40;;;4.90;;
10985;SDS011;5546;48.714;8.738;2023-06-14T02:04:26;7.90;;;4.73;;
10985;SDS011;5546;48.714;8.738;2023-06-14T02:06:52;5.23;;;4.13;;
10985;SDS011;5546;48.714;8.738;2023-06-14T02:09:18;6.23;;;4.30;;
10985;SDS011;5546;48.714;8.738;2023-06-14T02:11:43;5.20;;;4.30;;
10985;SDS011;5546;48.714;8.738;2023-06-14T02:14:09;5.67;;;4.53;;
10985;SDS011;5546;48.714;8.738;2023-06-14T02:16:36;5.37;;;4.40;;
10985;SDS011;5546;48.714;8.738;2023-06-14T02:19:03;4.20;;;3.80;;
10985;SDS011;5546;48.714;8.738;2023-06-14T02:21:29;5.53;;;3.83;;
10985;SDS011;5546;48.714;8.738;2023-06-14T02:23:55;4.63;;;4.23;;
10985;SDS011;5546;48.714;8.738;2023-06-14T02:26:21;5.47;;;4.63;;
10985;SDS011;5546;48.714;8.738;2023-06-14T02:28:47;6.00;;;4.77;;
10985;SDS011;5546;48.714;8.738;2023-06-14T02:31:13;4.87;;;4.37;;
10985;SDS011;5546;48.714;8.738;2023-06-14T02:33:39;5.00;;;4.47;;
10985;SDS011;5546;48.714;8.738;2023-06-14T02:36:05;5.00;;;4.50;;
10985;SDS011;5546;48.714;8.738;2023-06-14T02:38:31;5.73;;;4.43;;
10985;SDS011;5546;48.714;8.738;2023-06-14T02:40:56;4.63;;;4.23;;
10985;SDS011;5546;48.714;8.738;2023-06-14T02:43:24;5.53;;;4.93;;
10985;SDS011;5546;48.714;8.738;2023-06-14T02:45:50;5.53;;;4.50;;
10985;SDS011;5546;48.714;8.738;2023-06-14T02:48:15;5.80;;;4.60;;
10985;SDS011;5546;48.714;8.738;2023-06-14T02:50:41;5.97;;;4.40;;
10985;SDS011;5546;48.714;8.738;2023-06-14T02:53:07;5.17;;;4.67;;
10985;SDS011;5546;48.714;8.738;2023-06-14T02:55:33;4.57;;;4.17;;
10985;SDS011;5546;48.714;8.738;2023-06-14T02:58:04;5.80;;;4.67;;
10985;SDS011;5546;48.714;8.738;2023-06-14T03:00:30;5.43;;;4.60;;
10985;SDS011;5546;48.714;8.738;2023-06-14T03:02:56;5.07;;;4.60;;
10985;SDS011;5546;48.714;8.738;2023-06-14T03:05:22;5.43;;;4.90;;
10985;SDS011;5546;48.714;8.738;2023-06-14T03:07:48;5.90;;;4.73;;
10985;SDS011;5546;48.714;8.738;2023-06-14T03:10:15;6.30;;;4.50;;
10985;SDS011;5546;48.714;8.738;2023-06-14T03:12:41;6.53;;;4.50;;
10985;SDS011;5546;48.714;8.738;2023-06-14T03:15:06;7.50;;;4.50;;
10985;SDS011;5546;48.714;8.738;2023-06-14T03:17:33;6.40;;;4.70;;
10985;SDS011;5546;48.714;8.738;2023-06-14T03:20:00;7.73;;;4.60;;
10985;SDS011;5546;48.714;8.738;2023-06-14T03:22:26;5.77;;;4.40;;
10985;SDS011;5546;48.714;8.738;2023-06-14T03:24:52;4.87;;;4.27;;
10985;SDS011;5546;48.714;8.738;2023-06-14T03:27:19;6.70;;;4.70;;
10985;SDS011;5546;48.714;8.738;2023-06-14T03:29:44;5.73;;;4.83;;
10985;SDS011;5546;48.714;8.738;2023-06-14T03:32:10;5.67;;;4.70;;
10985;SDS011;5546;48.714;8.738;2023-06-14T03:34:36;5.07;;;4.57;;
10985;SDS011;5546;48.714;8.738;2023-06-14T03:37:03;5.73;;;4.60;;
10985;SDS011;5546;48.714;8.738;2023-06-14T03:39:29;4.67;;;4.20;;
10985;SDS011;5546;48.714;8.738;2023-06-14T03:41:55;5.73;;;4.83;;
10985;SDS011;5546;48.714;8.738;2023-06-14T03:44:20;7.57;;;4.70;;
10985;SDS011;5546;48.714;8.738;2023-06-14T03:46:46;5.00;;;4.43;;
10985;SDS011;5546;48.714;8.738;2023-06-14T03:49:12;5.60;;;4.40;;
10985;SDS011;5546;48.714;8.738;2023-06-14T03:51:39;5.33;;;4.57;;
10985;SDS011;5546;48.714;8.738;2023-06-14T03:54:05;6.77;;;4.37;;
10985;SDS011;5546;48.714;8.738;2023-06-14T03:56:31;5.57;;;4.27;;
10985;SDS011;5546;48.714;8.738;2023-06-14T03:58:56;6.63;;;4.93;;
10985;SDS011;5546;48.714;8.738;2023-06-14T04:01:22;5.23;;;4.27;;
10985;SDS011;5546;48.714;8.738;2023-06-14T04:03:52;5.57;;;5.00;;
10985;SDS011;5546;48.714;8.738;2023-06-14T04:06:18;6.07;;;4.77;;
10985;SDS011;5546;48.714;8.738;2023-06-14T04:08:44;5.63;;;5.03;;
10985;SDS011;5546;48.714;8.738;2023-06-14T04:11:10;5.90;;;4.70;;
10985;SDS011;5546;48.714;8.738;2023-06-14T04:13:36;5.50;;;4.90;;
10985;SDS011;5546;48.714;8.738;2023-06-14T04:16:04;5.37;;;4.87;;
10985;SDS011;5546;48.714;8.738;2023-06-14T04:18:30;6.03;;;4.53;;
10985;SDS011;5546;48.714;8.738;2023-06-14T04:20:56;5.93;;;5.00;;
10985;SDS011;5546;48.714;8.738;2023-06-14T04:23:21;5.30;;;4.80;;
10985;SDS011;5546;48.714;8.738;2023-06-14T04:25:47;5.20;;;4.57;;
10985;SDS011;5546;48.714;8.738;2023-06-14T04:28:14;6.83;;;5.00;;
10985;SDS011;5546;48.714;8.738;2023-06-14T04:30:41;6.30;;;4.77;;
10985;SDS011;5546;48.714;8.738;2023-06-14T04:33:07;5.33;;;4.80;;
10985;SDS011;5546;48.714;8.738;2023-06-14T04:35:34;6.13;;;5.20;;
10985;SDS011;5546;48.714;8.738;2023-06-14T04:38:01;5.90;;;4.87;;
10985;SDS011;5546;48.714;8.738;2023-06-14T04:40:29;7.23;;;4.87;;
10985;SDS011;5546;48.714;8.738;2023-06-14T04:42:55;7.50;;;5.40;;
10985;SDS011;5546;48.714;8.738;2023-06-14T04:45:22;7.87;;;4.50;;
10985;SDS011;5546;48.714;8.738;2023-06-14T04:47:48;5.00;;;4.50;;
10985;SDS011;5546;48.714;8.738;2023-06-14T04:50:15;5.90;;;4.83;;
10985;SDS011;5546;48.714;8.738;2023-06-14T04:52:43;7.80;;;4.63;;
10985;SDS011;5546;48.714;8.738;2023-06-14T04:55:08;5.00;;;4.50;;
10985;SDS011;5546;48.714;8.738;2023-06-14T04:57:35;5.27;;;4.77;;
10985;SDS011;5546;48.714;8.738;2023-06-14T05:00:00;6.07;;;4.47;;
10985;SDS011;5546;48.714;8.738;2023-06-14T05:02:29;7.17;;;5.27;;
10985;SDS011;5546;48.714;8.738;2023-06-14T05:04:55;8.03;;;5.07;;
10985;SDS011;5546;48.714;8.738;2023-06-14T05:07:22;5.43;;;4.70;;
10985;SDS011;5546;48.714;8.738;2023-06-14T05:09:48;6.77;;;4.70;;
10985;SDS011;5546;48.714;8.738;2023-06-14T05:12:14;4.83;;;4.20;;
10985;SDS011;5546;48.714;8.738;2023-06-14T05:14:43;5.70;;;4.77;;
10985;SDS011;5546;48.714;8.738;2023-06-14T05:17:09;5.80;;;4.60;;
10985;SDS011;5546;48.714;8.738;2023-06-14T05:19:35;5.37;;;4.50;;
10985;SDS011;5546;48.714;8.738;2023-06-14T05:22:00;5.47;;;4.80;;
10985;SDS011;5546;48.714;8.738;2023-06-14T05:24:28;5.57;;;4.50;;
10985;SDS011;5546;48.714;8.738;2023-06-14T05:26:57;6.77;;;4.47;;
10985;SDS011;5546;48.714;8.738;2023-06-14T05:29:22;6.27;;;4.50;;
10985;SDS011;5546;48.714;8.738;2023-06-14T05:31:48;5.80;;;4.70;;
10985;SDS011;5546;48.714;8.738;2023-06-14T05:34:14;6.47;;;4.50;;
10985;SDS011;5546;48.714;8.738;2023-06-14T05:36:40;5.33;;;4.53;;
10985;SDS011;5546;48.714;8.738;2023-06-14T05:39:06;5.17;;;4.67;;
10985;SDS011;5546;48.714;8.738;2023-06-14T05:41:33;5.93;;;5.10;;
10985;SDS011;5546;48.714;8.738;2023-06-14T05:43:59;6.43;;;4.53;;
10985;SDS011;5546;48.714;8.738;2023-06-14T05:46:26;7.03;;;4.33;;
10985;SDS011;5546;48.714;8.738;2023-06-14T05:48:52;6.63;;;4.83;;
10985;SDS011;5546;48.714;8.738;2023-06-14T05:51:18;5.10;;;4.60;;
10985;SDS011;5546;48.714;8.738;2023-06-14T05:53:46;5.93;;;5.00;;
10985;SDS011;5546;48.714;8.738;2023-06-14T05:56:15;5.83;;;4.43;;
10985;SDS011;5546;48.714;8.738;2023-06-14T05:58:43;5.10;;;4.45;;
10985;SDS011;5546;48.714;8.738;2023-06-14T06:01:09;5.80;;;4.57;;
10985;SDS011;5546;48.714;8.738;2023-06-14T06:03:34;5.75;;;4.65;;
10985;SDS011;5546;48.714;8.738;2023-06-14T06:06:00;9.25;;;4.45;;
10985;SDS011;5546;48.714;8.738;2023-06-14T06:08:27;5.10;;;4.60;;
10985;SDS011;5546;48.714;8.738;2023-06-14T06:10:53;6.15;;;4.80;;
10985;SDS011;5546;48.714;8.738;2023-06-14T06:13:18;5.53;;;4.90;;
10985;SDS011;5546;48.714;8.738;2023-06-14T06:15:44;6.57;;;4.97;;
10985;SDS011;5546;48.714;8.738;2023-06-14T06:18:10;5.20;;;4.50;;
10985;SDS011;5546;48.714;8.738;2023-06-14T06:20:36;5.45;;;4.68;;
10985;SDS011;5546;48.714;8.738;2023-06-14T06:23:01;5.43;;;4.53;;
10985;SDS011;5546;48.714;8.738;2023-06-14T06:25:27;5.40;;;4.85;;
10985;SDS011;5546;48.714;8.738;2023-06-14T06:27:53;5.32;;;4.60;;
10985;SDS011;5546;48.714;8.738;2023-06-14T06:30:21;5.35;;;4.63;;
10985;SDS011;5546;48.714;8.738;2023-06-14T06:32:47;6.25;;;4.78;;
10985;SDS011;5546;48.714;8.738;2023-06-14T06:35:13;6.85;;;4.68;;
10985;SDS011;5546;48.714;8.738;2023-06-14T06:37:39;4.78;;;4.28;;
10985;SDS011;5546;48.714;8.738;2023-06-14T06:40:06;6.03;;;4.18;;
10985;SDS011;5546;48.714;8.738;2023-06-14T06:42:32;5.38;;;4.78;;
10985;SDS011;5546;48.714;8.738;2023-06-14T06:44:58;4.78;;;4.30;;
10985;SDS011;5546;48.714;8.738;2023-06-14T06:47:23;7.57;;;4.40;;
10985;SDS011;5546;48.714;8.738;2023-06-14T06:49:50;5.00;;;4.50;;
10985;SDS011;5546;48.714;8.738;2023-06-14T06:52:15;4.40;;;4.00;;
10985;SDS011;5546;48.714;8.738;2023-06-14T06:54:41;4.35;;;3.97;;
10985;SDS011;5546;48.714;8.738;2023-06-14T06:57:06;9.20;;;4.50;;
10985;SDS011;5546;48.714;8.738;2023-06-14T06:59:32;6.38;;;4.05;;
10985;SDS011;5546;48.714;8.738;2023-06-14T07:01:59;5.65;;;4.13;;
10985;SDS011;5546;48.714;8.738;2023-06-14T07:04:25;5.28;;;4.47;;
10985;SDS011;5546;48.714;8.738;2023-06-14T07:06:51;8.02;;;4.40;;
10985;SDS011;5546;48.714;8.738;2023-06-14T07:09:16;6.45;;;4.00;;
10985;SDS011;5546;48.714;8.738;2023-06-14T07:11:43;7.90;;;4.20;;
10985;SDS011;5546;48.714;8.738;2023-06-14T07:14:10;5.28;;;4.30;;
10985;SDS011;5546;48.714;8.738;2023-06-14T07:16:35;5.30;;;4.10;;
10985;SDS011;5546;48.714;8.738;2023-06-14T07:19:04;5.20;;;4.40;;
10985;SDS011;5546;48.714;8.738;2023-06-14T07:21:30;6.07;;;4.30;;
10985;SDS011;5546;48.714;8.738;2023-06-14T07:23:55;4.10;;;3.70;;
10985;SDS011;5546;48.714;8.738;2023-06-14T07:26:21;8.77;;;4.07;;
10985;SDS011;5546;48.714;8.738;2023-06-14T07:28:47;5.72;;;4.18;;
10985;SDS011;5546;48.714;8.738;2023-06-14T07:31:14;5.88;;;3.88;;
10985;SDS011;5546;48.714;8.738;2023-06-14T07:33:41;6.63;;;3.90;;
10985;SDS011;5546;48.714;8.738;2023-06-14T07:36:07;5.40;;;3.95;;
10985;SDS011;5546;48.714;8.738;2023-06-14T07:38:33;5.80;;;3.90;;
10985;SDS011;5546;48.714;8.738;2023-06-14T07:40:59;7.07;;;3.53;;
10985;SDS011;5546;48.714;8.738;2023-06-14T07:43:25;5.55;;;4.00;;
10985;SDS011;5546;48.714;8.738;2023-06-14T07:45:50;4.90;;;4.05;;
10985;SDS011;5546;48.714;8.738;2023-06-14T07:48:16;5.53;;;3.70;;
10985;SDS011;5546;48.714;8.738;2023-06-14T07:50:41;6.63;;;4.20;;
10985;SDS011;5546;48.714;8.738;2023-06-14T07:53:08;7.18;;;3.47;;
10985;SDS011;5546;48.714;8.738;2023-06-14T07:55:33;6.40;;;3.58;;
10985;SDS011;5546;48.714;8.738;2023-06-14T07:58:01;5.93;;;3.85;;
10985;SDS011;5546;48.714;8.738;2023-06-14T08:00:28;5.78;;;4.00;;
10985;SDS011;5546;48.714;8.738;2023-06-14T08:02:53;6.32;;;3.80;;
10985;SDS011;5546;48.714;8.738;2023-06-14T08:05:23;4.03;;;3.55;;
10985;SDS011;5546;48.714;8.738;2023-06-14T08:07:50;5.40;;;3.50;;
10985;SDS011;5546;48.714;8.738;2023-06-14T08:10:16;6.97;;;4.00;;
10985;SDS011;5546;48.714;8.738;2023-06-14T08:12:42;6.60;;;3.70;;
10985;SDS011;5546;48.714;8.738;2023-06-14T08:15:08;8.05;;;4.05;;
10985;SDS011;5546;48.714;8.738;2023-06-14T08:17:34;7.05;;;3.75;;
10985;SDS011;5546;48.714;8.738;2023-06-14T08:19:59;5.50;;;3.50;;
10985;SDS011;5546;48.714;8.738;2023-06-14T08:22:25;6.00;;;3.70;;
10985;SDS011;5546;48.714;8.738;2023-06-14T08:24:52;5.68;;;3.80;;
10985;SDS011;5546;48.714;8.738;2023-06-14T08:27:19;7.60;;;4.20;;
10985;SDS011;5546;48.714;8.738;2023-06-14T08:29:45;5.35;;;3.92;;
10985;SDS011;5546;48.714;8.738;2023-06-14T08:32:10;8.32;;;4.00;;
10985;SDS011;5546;48.714;8.738;2023-06-14T08:34:36;6.68;;;3.72;;
10985;SDS011;5546;48.714;8.738;2023-06-14T08:37:01;7.68;;;3.70;;
10985;SDS011;5546;48.714;8.738;2023-06-14T08:39:27;4.63;;;4.20;;
10985;SDS011;5546;48.714;8.738;2023-06-14T08:41:53;7.68;;;3.92;;
10985;SDS011;5546;48.714;8.738;2023-06-14T08:44:21;7.53;;;3.97;;
10985;SDS011;5546;48.714;8.738;2023-06-14T08:46:47;7.82;;;4.22;;
10985;SDS011;5546;48.714;8.738;2023-06-14T08:49:13;9.65;;;4.05;;
10985;SDS011;5546;48.714;8.738;2023-06-14T08:51:41;4.75;;;3.72;;
10985;SDS011;5546;48.714;8.738;2023-06-14T08:54:08;9.13;;;4.10;;
10985;SDS011;5546;48.714;8.738;2023-06-14T08:56:37;7.95;;;4.05;;
10985;SDS011;5546;48.714;8.738;2023-06-14T08:59:03;5.20;;;4.50;;
10985;SDS011;5546;48.714;8.738;2023-06-14T09:01:34;7.05;;;4.00;;
10985;SDS011;5546;48.714;8.738;2023-06-14T09:04:01;5.82;;;4.00;;
10985;SDS011;5546;48.714;8.738;2023-06-14T09:06:27;8.75;;;4.07;;
10985;SDS011;5546;48.714;8.738;2023-06-14T09:08:54;5.25;;;3.90;;
10985;SDS011;5546;48.714;8.738;2023-06-14T09:11:22;5.40;;;3.63;;
10985;SDS011;5546;48.714;8.738;2023-06-14T09:13:48;5.35;;;4.30;;
10985;SDS011;5546;48.714;8.738;2023-06-14T09:16:15;6.63;;;4.18;;
10985;SDS011;5546;48.714;8.738;2023-06-14T09:18:42;4.30;;;3.80;;
10985;SDS011;5546;48.714;8.738;2023-06-14T09:21:13;4.70;;;3.95;;
10985;SDS011;5546;48.714;8.738;2023-06-14T09:23:40;5.78;;;3.97;;
10985;SDS011;5546;48.714;8.738;2023-06-14T09:26:08;8.48;;;4.70;;
10985;SDS011;5546;48.714;8.738;2023-06-14T09:28:35;8.07;;;4.07;;
10985;SDS011;5546;48.714;8.738;2023-06-14T09:31:01;5.85;;;4.38;;
10985;SDS011;5546;48.714;8.738;2023-06-14T09:33:27;5.38;;;4.47;;
10985;SDS011;5546;48.714;8.738;2023-06-14T09:35:55;6.55;;;4.30;;
10985;SDS011;5546;48.714;8.738;2023-06-14T09:38:20;8.93;;;4.45;;
10985;SDS011;5546;48.714;8.738;2023-06-14T09:40:46;6.97;;;4.10;;
10985;SDS011;5546;48.714;8.738;2023-06-14T09:43:12;5.32;;;3.85;;
10985;SDS011;5546;48.714;8.738;2023-06-14T09:45:38;4.70;;;4.07;;
10985;SDS011;5546;48.714;8.738;2023-06-14T09:48:10;6.30;;;4.18;;
10985;SDS011;5546;48.714;8.738;2023-06-14T09:50:36;11.40;;;4.60;;
10985;SDS011;5546;48.714;8.738;2023-06-14T09:53:07;8.77;;;3.92;;
10985;SDS011;5546;48.714;8.738;2023-06-14T09:55:36;7.15;;;3.85;;
10985;SDS011;5546;48.714;8.738;2023-06-14T09:58:06;4.97;;;4.20;;
10985;SDS011;5546;48.714;8.738;2023-06-14T10:00:32;5.07;;;4.40;;
10985;SDS011;5546;48.714;8.738;2023-06-14T10:03:21;4.95;;;4.07;;
10985;SDS011;5546;48.714;8.738;2023-06-14T10:05:53;5.32;;;3.92;;
10985;SDS011;5546;48.714;8.738;2023-06-14T10:08:26;4.65;;;4.25;;
10985;SDS011;5546;48.714;8.738;2023-06-14T10:10:55;4.90;;;4.32;;
10985;SDS011;5546;48.714;8.738;2023-06-14T10:13:21;6.72;;;4.40;;
10985;SDS011;5546;48.714;8.738;2023-06-14T10:16:10;5.93;;;4.13;;
10985;SDS011;5546;48.714;8.738;2023-06-14T10:24:07;5.78;;;3.60;;
10985;SDS011;5546;48.714;8.738;2023-06-14T10:26:35;5.95;;;3.85;;
10985;SDS011;5546;48.714;8.738;2023-06-14T10:29:15;8.55;;;4.38;;
10985;SDS011;5546;48.714;8.738;2023-06-14T10:31:41;4.35;;;3.78;;
10985;SDS011;5546;48.714;8.738;2023-06-14T10:34:09;6.15;;;4.00;;
10985;SDS011;5546;48.714;8.738;2023-06-14T10:36:35;5.32;;;4.00;;
10985;SDS011;5546;48.714;8.738;2023-06-14T10:39:10;8.68;;;3.78;;
10985;SDS011;5546;48.714;8.738;2023-06-14T10:41:40;7.10;;;4.38;;
10985;SDS011;5546;48.714;8.738;2023-06-14T10:46:38;7.82;;;3.90;;
10985;SDS011;5546;48.714;8.738;2023-06-14T10:49:05;5.22;;;4.10;;
10985;SDS011;5546;48.714;8.738;2023-06-14T10:51:38;9.48;;;4.45;;
10985;SDS011;5546;48.714;8.738;2023-06-14T10:54:14;7.32;;;4.25;;
10985;SDS011;5546;48.714;8.738;2023-06-14T10:56:47;4.50;;;4.10;;
10985;SDS011;5546;48.714;8.738;2023-06-14T10:59:17;6.82;;;4.30;;
10985;SDS011;5546;48.714;8.738;2023-06-14T11:01:52;6.13;;;3.90;;
10985;SDS011;5546;48.714;8.738;2023-06-14T11:04:23;4.15;;;3.75;;
10985;SDS011;5546;48.714;8.738;2023-06-14T11:07:05;6.25;;;4.13;;
10985;SDS011;5546;48.714;8.738;2023-06-14T11:10:03;5.30;;;4.80;;
10985;SDS011;5546;48.714;8.738;2023-06-14T11:12:31;5.30;;;3.95;;
10985;SDS011;5546;48.714;8.738;2023-06-14T11:15:00;9.38;;;4.18;;
10985;SDS011;5546;48.714;8.738;2023-06-14T11:17:26;8.85;;;4.20;;
10985;SDS011;5546;48.714;8.738;2023-06-14T11:20:07;5.53;;;4.32;;
10985;SDS011;5546;48.714;8.738;2023-06-14T11:22:40;4.03;;;3.72;;
10985;SDS011;5546;48.714;8.738;2023-06-14T11:25:08;4.50;;;3.72;;
10985;SDS011;5546;48.714;8.738;2023-06-14T11:27:35;5.50;;;3.88;;
10985;SDS011;5546;48.714;8.738;2023-06-14T11:30:00;5.75;;;3.95;;
10985;SDS011;5546;48.714;8.738;2023-06-14T11:32:27;26.52;;;4.63;;
10985;SDS011;5546;48.714;8.738;2023-06-14T11:34:52;7.47;;;4.15;;
10985;SDS011;5546;48.714;8.738;2023-06-14T11:37:18;7.85;;;3.85;;
10985;SDS011;5546;48.714;8.738;2023-06-14T11:39:45;5.70;;;4.18;;
10985;SDS011;5546;48.714;8.738;2023-06-14T11:42:16;9.30;;;3.63;;
10985;SDS011;5546;48.714;8.738;2023-06-14T11:44:45;5.57;;;3.95;;
10985;SDS011;5546;48.714;8.738;2023-06-14T11:47:11;7.45;;;3.90;;
10985;SDS011;5546;48.714;8.738;2023-06-14T11:49:36;35.72;;;5.45;;
10985;SDS011;5546;48.714;8.738;2023-06-14T11:52:02;5.90;;;4.03;;
10985;SDS011;5546;48.714;8.738;2023-06-14T11:54:27;4.70;;;3.78;;
10985;SDS011;5546;48.714;8.738;2023-06-14T11:56:53;5.85;;;4.32;;
10985;SDS011;5546;48.714;8.738;2023-06-14T11:59:20;6.50;;;4.18;;
10985;SDS011;5546;48.714;8.738;2023-06-14T12:01:47;4.30;;;3.80;;
10985;SDS011;5546;48.714;8.738;2023-06-14T12:04:12;8.27;;;3.75;;
10985;SDS011;5546;48.714;8.738;2023-06-14T12:06:38;7.65;;;3.95;;
10985;SDS011;5546;48.714;8.738;2023-06-14T12:09:05;4.50;;;3.70;;
10985;SDS011;5546;48.714;8.738;2023-06-14T12:11:35;7.53;;;3.92;;
10985;SDS011;5546;48.714;8.738;2023-06-14T12:14:05;5.63;;;4.00;;
10985;SDS011;5546;48.714;8.738;2023-06-14T12:16:34;5.05;;;3.67;;
10985;SDS011;5546;48.714;8.738;2023-06-14T12:19:35;5.45;;;3.83;;
10985;SDS011;5546;48.714;8.738;2023-06-14T12:21:54;5.50;;;3.92;;
10985;SDS011;5546;48.714;8.738;2023-06-14T12:24:19;6.13;;;3.63;;
10985;SDS011;5546;48.714;8.738;2023-06-14T12:26:45;6.63;;;3.78;;
10985;SDS011;5546;48.714;8.738;2023-06-14T12:29:12;4.55;;;4.05;;
10985;SDS011;5546;48.714;8.738;2023-06-14T12:31:37;6.50;;;3.70;;
10985;SDS011;5546;48.714;8.738;2023-06-14T12:34:03;7.30;;;3.78;;
10985;SDS011;5546;48.714;8.738;2023-06-14T12:36:29;4.63;;;4.22;;
10985;SDS011;5546;48.714;8.738;2023-06-14T12:38:54;4.03;;;3.65;;
10985;SDS011;5546;48.714;8.738;2023-06-14T12:41:20;10.45;;;3.88;;
10985;SDS011;5546;48.714;8.738;2023-06-14T12:43:47;5.68;;;3.65;;
10985;SDS011;5546;48.714;8.738;2023-06-14T12:46:12;4.72;;;3.80;;
10985;SDS011;5546;48.714;8.738;2023-06-14T12:48:38;3.90;;;3.50;;
10985;SDS011;5546;48.714;8.738;2023-06-14T12:51:03;4.97;;;3.90;;
10985;SDS011;5546;48.714;8.738;2023-06-14T12:53:29;5.18;;;3.90;;
10985;SDS011;5546;48.714;8.738;2023-06-14T12:55:55;4.53;;;3.50;;
10985;SDS011;5546;48.714;8.738;2023-06-14T12:58:20;7.95;;;3.72;;
10985;SDS011;5546;48.714;8.738;2023-06-14T13:00:46;5.75;;;3.70;;
10985;SDS011;5546;48.714;8.738;2023-06-14T13:03:12;7.22;;;3.70;;
10985;SDS011;5546;48.714;8.738;2023-06-14T13:05:38;5.45;;;3.83;;
10985;SDS011;5546;48.714;8.738;2023-06-14T13:08:06;4.30;;;3.33;;
10985;SDS011;5546;48.714;8.738;2023-06-14T13:10:33;6.78;;;3.65;;
10985;SDS011;5546;48.714;8.738;2023-06-14T13:12:59;4.13;;;3.70;;
10985;SDS011;5546;48.714;8.738;2023-06-14T13:15:25;4.57;;;3.67;;
10985;SDS011;5546;48.714;8.738;2023-06-14T13:17:51;3.95;;;3.55;;
10985;SDS011;5546;48.714;8.738;2023-06-14T13:20:17;7.65;;;3.55;;
10985;SDS011;5546;48.714;8.738;2023-06-14T13:22:43;4.45;;;4.05;;
10985;SDS011;5546;48.714;8.738;2023-06-14T13:25:09;4.78;;;3.90;;
10985;SDS011;5546;48.714;8.738;2023-06-14T13:27:34;4.93;;;3.40;;
10985;SDS011;5546;48.714;8.738;2023-06-14T13:30:00;6.78;;;3.88;;
10985;SDS011;5546;48.714;8.738;2023-06-14T13:32:26;6.10;;;3.83;;
10985;SDS011;5546;48.714;8.738;2023-06-14T13:34:51;6.40;;;3.80;;
10985;SDS011;5546;48.714;8.738;2023-06-14T13:37:17;5.18;;;3.70;;
10985;SDS011;5546;48.714;8.738;2023-06-14T13:39:42;9.75;;;3.85;;
10985;SDS011;5546;48.714;8.738;2023-06-14T13:42:08;4.18;;;3.40;;
10985;SDS011;5546;48.714;8.738;2023-06-14T13:44:35;3.72;;;3.42;;
10985;SDS011;5546;48.714;8.738;2023-06-14T13:47:01;5.68;;;3.70;;
10985;SDS011;5546;48.714;8.738;2023-06-14T13:49:26;8.82;;;4.20;;
10985;SDS011;5546;48.714;8.738;2023-06-14T13:51:52;8.02;;;3.95;;
10985;SDS011;5546;48.714;8.738;2023-06-14T13:54:19;5.25;;;3.45;;
10985;SDS011;5546;48.714;8.738;2023-06-14T13:56:46;4.57;;;3.38;;
10985;SDS011;5546;48.714;8.738;2023-06-14T13:59:11;8.25;;;3.67;;
10985;SDS011;5546;48.714;8.738;2023-06-14T14:01:37;4.22;;;3.60;;
10985;SDS011;5546;48.714;8.738;2023-06-14T14:04:03;4.43;;;3.65;;
10985;SDS011;5546;48.714;8.738;2023-06-14T14:06:29;11.05;;;4.03;;
10985;SDS011;5546;48.714;8.738;2023-06-14T14:08:55;4.55;;;3.45;;
10985;SDS011;5546;48.714;8.738;2023-06-14T14:11:21;5.88;;;3.67;;
10985;SDS011;5546;48.714;8.738;2023-06-14T14:13:47;4.15;;;3.63;;
10985;SDS011;5546;48.714;8.738;2023-06-14T14:16:13;8.80;;;3.38;;
10985;SDS011;5546;48.714;8.738;2023-06-14T14:18:39;6.47;;;3.47;;
10985;SDS011;5546;48.714;8.738;2023-06-14T14:21:05;7.00;;;3.75;;
10985;SDS011;5546;48.714;8.738;2023-06-14T14:23:31;7.53;;;3.75;;
10985;SDS011;5546;48.714;8.738;2023-06-14T14:25:57;3.90;;;3.55;;
10985;SDS011;5546;48.714;8.738;2023-06-14T14:28:22;11.43;;;3.97;;
10985;SDS011;5546;48.714;8.738;2023-06-14T14:30:48;5.05;;;3.47;;
10985;SDS011;5546;48.714;8.738;2023-06-14T14:33:14;5.85;;;3.75;;
10985;SDS011;5546;48.714;8.738;2023-06-14T14:35:45;4.63;;;3.58;;
10985;SDS011;5546;48.714;8.738;2023-06-14T14:38:11;4.55;;;3.45;;
10985;SDS011;5546;48.714;8.738;2023-06-14T14:40:38;3.92;;;3.40;;
10985;SDS011;5546;48.714;8.738;2023-06-14T14:43:05;3.80;;;3.40;;
10985;SDS011;5546;48.714;8.738;2023-06-14T14:45:31;5.07;;;3.78;;
10985;SDS011;5546;48.714;8.738;2023-06-14T14:47:56;4.65;;;3.40;;
10985;SDS011;5546;48.714;8.738;2023-06-14T14:50:22;5.03;;;3.15;;
10985;SDS011;5546;48.714;8.738;2023-06-14T14:52:48;4.47;;;3.53;;
10985;SDS011;5546;48.714;8.738;2023-06-14T14:55:14;3.55;;;3.20;;
10985;SDS011;5546;48.714;8.738;2023-06-14T14:57:40;5.22;;;3.58;;
10985;SDS011;5546;48.714;8.738;2023-06-14T15:00:06;4.70;;;3.25;;
10985;SDS011;5546;48.714;8.738;2023-06-14T15:02:33;5.00;;;3.40;;
10985;SDS011;5546;48.714;8.738;2023-06-14T15:04:58;6.25;;;3.65;;
10985;SDS011;5546;48.714;8.738;2023-06-14T15:07:26;3.80;;;3.35;;